sensor_id;sensor_type;location;lat;lon;timestamp;P1;durP1;ratioP1;P2;durP2;ratioP2
9248;SDS011;4660;41.768;26.198;2023-11-21T00:00:19;23.97;;;14.30;;
9248;SDS011;4660;41.768;26.198;2023-11-21T00:02:44;25.27;;;14.40;;
9248;SDS011;4660;41.768;26.198;2023-11-21T00:05:11;29.57;;;15.13;;
9248;SDS011;4660;41.768;26.198;2023-11-21T00:07:39;20.13;;;13.83;;
9248;SDS011;4660;41.768;26.198;2023-11-21T00:10:09;20.43;;;13.47;;
9248;SDS011;4660;41.768;26.198;2023-11-21T00:12:35;20.33;;;14.17;;
9248;SDS011;4660;41.768;26.198;2023-11-21T00:15:02;22.57;;;13.73;;
9248;SDS011;4660;41.768;26.198;2023-11-21T00:17:30;22.07;;;13.50;;
9248;SDS011;4660;41.768;26.198;2023-11-21T00:19:55;22.27;;;11.30;;
9248;SDS011;4660;41.768;26.198;2023-11-21T00:22:21;14.13;;;9.17;;
9248;SDS011;4660;41.768;26.198;2023-11-21T00:24:47;13.53;;;8.33;;
9248;SDS011;4660;41.768;26.198;2023-11-21T00:27:13;15.93;;;8.53;;
9248;SDS011;4660;41.768;26.198;2023-11-21T00:29:39;14.50;;;8.97;;
9248;SDS011;4660;41.768;26.198;2023-11-21T00:32:05;19.33;;;9.13;;
9248;SDS011;4660;41.768;26.198;2023-11-21T00:34:31;21.43;;;9.23;;
9248;SDS011;4660;41.768;26.198;2023-11-21T00:36:57;15.90;;;8.80;;
9248;SDS011;4660;41.768;26.198;2023-11-21T00:39:23;17.93;;;9.07;;
9248;SDS011;4660;41.768;26.198;2023-11-21T00:41:49;12.87;;;7.70;;
9248;SDS011;4660;41.768;26.198;2023-11-21T00:44:15;11.67;;;7.90;;
9248;SDS011;4660;41.768;26.198;2023-11-21T00:46:41;12.73;;;7.33;;
9248;SDS011;4660;41.768;26.198;2023-11-21T00:49:06;11.00;;;7.97;;
9248;SDS011;4660;41.768;26.198;2023-11-21T00:51:33;11.37;;;7.33;;
9248;SDS011;4660;41.768;26.198;2023-11-21T00:53:59;8.87;;;6.57;;
9248;SDS011;4660;41.768;26.198;2023-11-21T00:56:24;8.73;;;5.20;;
9248;SDS011;4660;41.768;26.198;2023-11-21T00:58:50;5.97;;;4.43;;
9248;SDS011;4660;41.768;26.198;2023-11-21T01:01:18;5.37;;;4.70;;
9248;SDS011;4660;41.768;26.198;2023-11-21T01:03:47;7.50;;;4.63;;
9248;SDS011;4660;41.768;26.198;2023-11-21T01:06:12;5.23;;;4.27;;
9248;SDS011;4660;41.768;26.198;2023-11-21T01:08:38;5.13;;;3.97;;
9248;SDS011;4660;41.768;26.198;2023-11-21T01:11:04;9.80;;;6.03;;
9248;SDS011;4660;41.768;26.198;2023-11-21T01:13:32;16.30;;;9.50;;
9248;SDS011;4660;41.768;26.198;2023-11-21T01:15:58;19.43;;;11.07;;
9248;SDS011;4660;41.768;26.198;2023-11-21T01:18:24;19.90;;;11.03;;
9248;SDS011;4660;41.768;26.198;2023-11-21T01:20:50;16.07;;;11.00;;
9248;SDS011;4660;41.768;26.198;2023-11-21T01:23:18;15.17;;;10.00;;
9248;SDS011;4660;41.768;26.198;2023-11-21T01:25:43;17.47;;;10.87;;
9248;SDS011;4660;41.768;26.198;2023-11-21T01:28:09;21.07;;;10.87;;
9248;SDS011;4660;41.768;26.198;2023-11-21T01:30:34;18.37;;;10.13;;
9248;SDS011;4660;41.768;26.198;2023-11-21T01:33:00;16.07;;;9.53;;
9248;SDS011;4660;41.768;26.198;2023-11-21T01:35:26;16.67;;;9.53;;
9248;SDS011;4660;41.768;26.198;2023-11-21T01:37:51;17.10;;;10.50;;
9248;SDS011;4660;41.768;26.198;2023-11-21T01:40:17;19.13;;;11.47;;
9248;SDS011;4660;41.768;26.198;2023-11-21T01:42:44;15.30;;;10.07;;
9248;SDS011;4660;41.768;26.198;2023-11-21T01:45:11;14.97;;;10.80;;
9248;SDS011;4660;41.768;26.198;2023-11-21T01:47:38;15.27;;;9.70;;
9248;SDS011;4660;41.768;26.198;2023-11-21T01:50:06;12.27;;;10.10;;
9248;SDS011;4660;41.768;26.198;2023-11-21T01:52:33;16.63;;;11.10;;
9248;SDS011;4660;41.768;26.198;2023-11-21T01:55:00;12.87;;;9.20;;
9248;SDS011;4660;41.768;26.198;2023-11-21T01:57:26;12.50;;;8.20;;
9248;SDS011;4660;41.768;26.198;2023-11-21T01:59:52;10.47;;;8.03;;
9248;SDS011;4660;41.768;26.198;2023-11-21T02:02:19;10.73;;;8.57;;
9248;SDS011;4660;41.768;26.198;2023-11-21T02:04:45;9.87;;;8.53;;
9248;SDS011;4660;41.768;26.198;2023-11-21T02:07:11;11.43;;;8.80;;
9248;SDS011;4660;41.768;26.198;2023-11-21T02:09:37;10.00;;;8.13;;
9248;SDS011;4660;41.768;26.198;2023-11-21T02:12:03;13.60;;;8.27;;
9248;SDS011;4660;41.768;26.198;2023-11-21T02:14:30;13.73;;;9.20;;
9248;SDS011;4660;41.768;26.198;2023-11-21T02:16:56;9.70;;;7.63;;
9248;SDS011;4660;41.768;26.198;2023-11-21T02:19:22;10.37;;;7.87;;
9248;SDS011;4660;41.768;26.198;2023-11-21T02:21:50;11.57;;;8.03;;
9248;SDS011;4660;41.768;26.198;2023-11-21T02:24:18;10.37;;;7.80;;
9248;SDS011;4660;41.768;26.198;2023-11-21T02:26:47;14.17;;;8.10;;
9248;SDS011;4660;41.768;26.198;2023-11-21T02:29:14;11.37;;;7.83;;
9248;SDS011;4660;41.768;26.198;2023-11-21T02:31:43;12.43;;;8.37;;
9248;SDS011;4660;41.768;26.198;2023-11-21T02:34:16;14.67;;;9.90;;
9248;SDS011;4660;41.768;26.198;2023-11-21T02:36:45;18.93;;;13.07;;
9248;SDS011;4660;41.768;26.198;2023-11-21T02:39:11;20.53;;;14.30;;
9248;SDS011;4660;41.768;26.198;2023-11-21T02:41:37;20.87;;;14.47;;
9248;SDS011;4660;41.768;26.198;2023-11-21T02:44:04;17.57;;;11.40;;
9248;SDS011;4660;41.768;26.198;2023-11-21T02:46:33;17.40;;;11.87;;
9248;SDS011;4660;41.768;26.198;2023-11-21T02:49:00;15.50;;;8.70;;
9248;SDS011;4660;41.768;26.198;2023-11-21T02:51:26;17.17;;;8.83;;
9248;SDS011;4660;41.768;26.198;2023-11-21T02:53:52;16.83;;;9.23;;
9248;SDS011;4660;41.768;26.198;2023-11-21T02:56:17;17.03;;;9.13;;
9248;SDS011;4660;41.768;26.198;2023-11-21T02:58:44;22.40;;;10.70;;
9248;SDS011;4660;41.768;26.198;2023-11-21T03:01:10;20.33;;;10.03;;
9248;SDS011;4660;41.768;26.198;2023-11-21T03:03:36;20.93;;;11.73;;
9248;SDS011;4660;41.768;26.198;2023-11-21T03:06:08;17.77;;;9.93;;
9248;SDS011;4660;41.768;26.198;2023-11-21T03:08:34;17.97;;;9.70;;
9248;SDS011;4660;41.768;26.198;2023-11-21T03:11:00;17.57;;;9.93;;
9248;SDS011;4660;41.768;26.198;2023-11-21T03:13:25;16.37;;;10.13;;
9248;SDS011;4660;41.768;26.198;2023-11-21T03:15:51;23.20;;;11.20;;
9248;SDS011;4660;41.768;26.198;2023-11-21T03:18:17;22.93;;;10.07;;
9248;SDS011;4660;41.768;26.198;2023-11-21T03:20:43;20.53;;;10.07;;
9248;SDS011;4660;41.768;26.198;2023-11-21T03:23:11;45.47;;;24.93;;
9248;SDS011;4660;41.768;26.198;2023-11-21T03:25:37;25.47;;;15.27;;
9248;SDS011;4660;41.768;26.198;2023-11-21T03:28:03;17.00;;;11.47;;
9248;SDS011;4660;41.768;26.198;2023-11-21T03:30:28;16.00;;;9.40;;
9248;SDS011;4660;41.768;26.198;2023-11-21T03:32:54;18.20;;;9.67;;
9248;SDS011;4660;41.768;26.198;2023-11-21T03:35:19;16.40;;;11.90;;
9248;SDS011;4660;41.768;26.198;2023-11-21T03:37:46;20.57;;;13.03;;
9248;SDS011;4660;41.768;26.198;2023-11-21T03:40:12;16.07;;;10.03;;
9248;SDS011;4660;41.768;26.198;2023-11-21T03:42:38;11.10;;;9.90;;
9248;SDS011;4660;41.768;26.198;2023-11-21T03:45:05;11.60;;;8.93;;
9248;SDS011;4660;41.768;26.198;2023-11-21T03:47:31;16.27;;;7.60;;
9248;SDS011;4660;41.768;26.198;2023-11-21T03:49:57;9.80;;;6.87;;
9248;SDS011;4660;41.768;26.198;2023-11-21T03:52:22;18.80;;;10.67;;
9248;SDS011;4660;41.768;26.198;2023-11-21T03:54:48;14.67;;;9.23;;
9248;SDS011;4660;41.768;26.198;2023-11-21T03:57:14;14.53;;;11.33;;
9248;SDS011;4660;41.768;26.198;2023-11-21T03:59:40;17.13;;;11.13;;
9248;SDS011;4660;41.768;26.198;2023-11-21T04:02:06;16.87;;;11.03;;
9248;SDS011;4660;41.768;26.198;2023-11-21T04:04:33;15.97;;;10.93;;
9248;SDS011;4660;41.768;26.198;2023-11-21T04:06:59;21.00;;;10.90;;
9248;SDS011;4660;41.768;26.198;2023-11-21T04:09:24;17.87;;;11.10;;
9248;SDS011;4660;41.768;26.198;2023-11-21T04:11:51;16.67;;;10.07;;
9248;SDS011;4660;41.768;26.198;2023-11-21T04:14:17;13.87;;;9.37;;
9248;SDS011;4660;41.768;26.198;2023-11-21T04:16:42;13.97;;;9.33;;
9248;SDS011;4660;41.768;26.198;2023-11-21T04:19:08;15.03;;;9.30;;
9248;SDS011;4660;41.768;26.198;2023-11-21T04:21:40;14.63;;;9.03;;
9248;SDS011;4660;41.768;26.198;2023-11-21T04:24:06;16.77;;;10.40;;
9248;SDS011;4660;41.768;26.198;2023-11-21T04:26:32;19.30;;;12.83;;
9248;SDS011;4660;41.768;26.198;2023-11-21T04:28:57;20.97;;;14.60;;
9248;SDS011;4660;41.768;26.198;2023-11-21T04:31:23;23.47;;;13.37;;
9248;SDS011;4660;41.768;26.198;2023-11-21T04:33:48;20.33;;;12.67;;
9248;SDS011;4660;41.768;26.198;2023-11-21T04:36:14;18.57;;;11.77;;
9248;SDS011;4660;41.768;26.198;2023-11-21T04:38:39;17.57;;;11.70;;
9248;SDS011;4660;41.768;26.198;2023-11-21T04:41:06;20.93;;;13.40;;
9248;SDS011;4660;41.768;26.198;2023-11-21T04:43:31;18.57;;;12.17;;
9248;SDS011;4660;41.768;26.198;2023-11-21T04:45:57;20.10;;;14.00;;
9248;SDS011;4660;41.768;26.198;2023-11-21T04:48:23;18.93;;;11.73;;
9248;SDS011;4660;41.768;26.198;2023-11-21T04:50:48;22.63;;;12.43;;
9248;SDS011;4660;41.768;26.198;2023-11-21T04:53:14;25.03;;;13.73;;
9248;SDS011;4660;41.768;26.198;2023-11-21T04:55:43;21.37;;;13.83;;
9248;SDS011;4660;41.768;26.198;2023-11-21T04:58:09;22.07;;;13.83;;
9248;SDS011;4660;41.768;26.198;2023-11-21T05:00:36;22.43;;;13.03;;
9248;SDS011;4660;41.768;26.198;2023-11-21T05:03:02;20.47;;;13.33;;
9248;SDS011;4660;41.768;26.198;2023-11-21T05:05:29;30.77;;;21.80;;
9248;SDS011;4660;41.768;26.198;2023-11-21T05:07:55;24.23;;;16.40;;
9248;SDS011;4660;41.768;26.198;2023-11-21T05:10:20;22.50;;;13.73;;
9248;SDS011;4660;41.768;26.198;2023-11-21T05:12:47;28.13;;;16.73;;
9248;SDS011;4660;41.768;26.198;2023-11-21T05:15:16;23.90;;;14.97;;
9248;SDS011;4660;41.768;26.198;2023-11-21T05:17:46;24.37;;;15.77;;
9248;SDS011;4660;41.768;26.198;2023-11-21T05:20:15;20.33;;;13.33;;
9248;SDS011;4660;41.768;26.198;2023-11-21T05:22:45;21.63;;;14.17;;
9248;SDS011;4660;41.768;26.198;2023-11-21T05:25:14;21.87;;;14.73;;
9248;SDS011;4660;41.768;26.198;2023-11-21T05:27:42;14.17;;;10.57;;
9248;SDS011;4660;41.768;26.198;2023-11-21T05:30:07;17.87;;;10.40;;
9248;SDS011;4660;41.768;26.198;2023-11-21T05:32:37;19.23;;;11.90;;
9248;SDS011;4660;41.768;26.198;2023-11-21T05:35:03;17.03;;;10.80;;
9248;SDS011;4660;41.768;26.198;2023-11-21T05:37:29;12.30;;;9.70;;
9248;SDS011;4660;41.768;26.198;2023-11-21T05:39:55;18.70;;;10.32;;
9248;SDS011;4660;41.768;26.198;2023-11-21T05:42:22;15.80;;;10.97;;
9248;SDS011;4660;41.768;26.198;2023-11-21T05:44:49;16.00;;;9.20;;
9248;SDS011;4660;41.768;26.198;2023-11-21T05:47:15;17.00;;;10.07;;
9248;SDS011;4660;41.768;26.198;2023-11-21T05:49:40;19.87;;;13.00;;
9248;SDS011;4660;41.768;26.198;2023-11-21T05:52:07;19.27;;;11.37;;
9248;SDS011;4660;41.768;26.198;2023-11-21T05:54:32;19.53;;;12.70;;
9248;SDS011;4660;41.768;26.198;2023-11-21T05:57:00;42.30;;;27.50;;
9248;SDS011;4660;41.768;26.198;2023-11-21T05:59:25;42.27;;;25.87;;
9248;SDS011;4660;41.768;26.198;2023-11-21T06:01:51;44.87;;;28.97;;
9248;SDS011;4660;41.768;26.198;2023-11-21T06:04:17;56.60;;;32.70;;
9248;SDS011;4660;41.768;26.198;2023-11-21T06:06:43;41.47;;;26.23;;
9248;SDS011;4660;41.768;26.198;2023-11-21T06:09:09;34.33;;;25.80;;
9248;SDS011;4660;41.768;26.198;2023-11-21T06:11:35;32.17;;;24.07;;
9248;SDS011;4660;41.768;26.198;2023-11-21T06:14:01;30.13;;;21.43;;
9248;SDS011;4660;41.768;26.198;2023-11-21T06:16:27;33.40;;;21.57;;
9248;SDS011;4660;41.768;26.198;2023-11-21T06:18:53;30.93;;;19.60;;
9248;SDS011;4660;41.768;26.198;2023-11-21T06:21:18;22.07;;;16.77;;
9248;SDS011;4660;41.768;26.198;2023-11-21T06:23:44;20.43;;;14.80;;
9248;SDS011;4660;41.768;26.198;2023-11-21T06:26:09;28.27;;;14.10;;
9248;SDS011;4660;41.768;26.198;2023-11-21T06:28:35;24.40;;;14.53;;
9248;SDS011;4660;41.768;26.198;2023-11-21T06:31:04;20.67;;;14.20;;
9248;SDS011;4660;41.768;26.198;2023-11-21T06:33:33;26.60;;;15.30;;
9248;SDS011;4660;41.768;26.198;2023-11-21T06:35:59;24.53;;;13.67;;
9248;SDS011;4660;41.768;26.198;2023-11-21T06:38:27;21.97;;;13.37;;
9248;SDS011;4660;41.768;26.198;2023-11-21T06:40:55;19.97;;;13.77;;
9248;SDS011;4660;41.768;26.198;2023-11-21T06:43:23;19.93;;;15.00;;
9248;SDS011;4660;41.768;26.198;2023-11-21T06:45:49;22.70;;;15.40;;
9248;SDS011;4660;41.768;26.198;2023-11-21T06:48:16;21.20;;;16.17;;
9248;SDS011;4660;41.768;26.198;2023-11-21T06:50:41;24.17;;;16.50;;
9248;SDS011;4660;41.768;26.198;2023-11-21T06:53:07;26.77;;;16.73;;
9248;SDS011;4660;41.768;26.198;2023-11-21T06:55:38;22.97;;;16.43;;
9248;SDS011;4660;41.768;26.198;2023-11-21T06:58:07;20.23;;;15.40;;
9248;SDS011;4660;41.768;26.198;2023-11-21T07:00:33;24.87;;;15.10;;
9248;SDS011;4660;41.768;26.198;2023-11-21T07:02:59;21.47;;;16.07;;
9248;SDS011;4660;41.768;26.198;2023-11-21T07:05:25;30.67;;;18.60;;
9248;SDS011;4660;41.768;26.198;2023-11-21T07:07:51;34.17;;;21.13;;
9248;SDS011;4660;41.768;26.198;2023-11-21T07:10:17;35.23;;;22.83;;
9248;SDS011;4660;41.768;26.198;2023-11-21T07:12:44;38.70;;;23.63;;
9248;SDS011;4660;41.768;26.198;2023-11-21T07:15:10;27.53;;;19.13;;
9248;SDS011;4660;41.768;26.198;2023-11-21T07:17:35;21.17;;;15.97;;
9248;SDS011;4660;41.768;26.198;2023-11-21T07:20:02;19.67;;;14.90;;
9248;SDS011;4660;41.768;26.198;2023-11-21T07:22:28;20.10;;;13.37;;
9248;SDS011;4660;41.768;26.198;2023-11-21T07:24:54;17.83;;;13.10;;
9248;SDS011;4660;41.768;26.198;2023-11-21T07:27:24;17.27;;;12.67;;
9248;SDS011;4660;41.768;26.198;2023-11-21T07:29:50;15.20;;;11.40;;
9248;SDS011;4660;41.768;26.198;2023-11-21T07:32:15;14.30;;;12.70;;
9248;SDS011;4660;41.768;26.198;2023-11-21T07:34:41;17.83;;;12.00;;
9248;SDS011;4660;41.768;26.198;2023-11-21T07:37:08;15.57;;;12.37;;
9248;SDS011;4660;41.768;26.198;2023-11-21T07:39:36;18.90;;;12.80;;
9248;SDS011;4660;41.768;26.198;2023-11-21T07:42:02;20.77;;;13.53;;
9248;SDS011;4660;41.768;26.198;2023-11-21T07:44:28;19.57;;;12.90;;
9248;SDS011;4660;41.768;26.198;2023-11-21T07:46:54;18.67;;;13.30;;
9248;SDS011;4660;41.768;26.198;2023-11-21T07:49:26;21.33;;;13.20;;
9248;SDS011;4660;41.768;26.198;2023-11-21T07:51:53;18.27;;;13.53;;
9248;SDS011;4660;41.768;26.198;2023-11-21T07:54:18;20.63;;;13.57;;
9248;SDS011;4660;41.768;26.198;2023-11-21T07:56:44;18.87;;;13.83;;
9248;SDS011;4660;41.768;26.198;2023-11-21T07:59:10;20.33;;;14.37;;
9248;SDS011;4660;41.768;26.198;2023-11-21T08:01:37;22.80;;;15.70;;
9248;SDS011;4660;41.768;26.198;2023-11-21T08:04:03;24.33;;;14.57;;
9248;SDS011;4660;41.768;26.198;2023-11-21T08:06:29;20.87;;;16.23;;
9248;SDS011;4660;41.768;26.198;2023-11-21T08:08:56;22.83;;;15.50;;
9248;SDS011;4660;41.768;26.198;2023-11-21T08:11:22;20.93;;;15.30;;
9248;SDS011;4660;41.768;26.198;2023-11-21T08:13:48;18.07;;;15.47;;
9248;SDS011;4660;41.768;26.198;2023-11-21T08:16:14;23.47;;;17.17;;
9248;SDS011;4660;41.768;26.198;2023-11-21T08:18:43;21.93;;;17.27;;
9248;SDS011;4660;41.768;26.198;2023-11-21T08:21:13;21.67;;;16.97;;
9248;SDS011;4660;41.768;26.198;2023-11-21T08:23:39;25.07;;;20.47;;
9248;SDS011;4660;41.768;26.198;2023-11-21T08:26:06;30.20;;;17.77;;
9248;SDS011;4660;41.768;26.198;2023-11-21T08:28:44;20.03;;;15.93;;
9248;SDS011;4660;41.768;26.198;2023-11-21T08:31:10;22.00;;;16.87;;
9248;SDS011;4660;41.768;26.198;2023-11-21T08:33:35;22.33;;;16.77;;
9248;SDS011;4660;41.768;26.198;2023-11-21T08:36:01;20.10;;;15.30;;
9248;SDS011;4660;41.768;26.198;2023-11-21T08:38:35;20.33;;;16.67;;
9248;SDS011;4660;41.768;26.198;2023-11-21T08:41:07;23.47;;;16.13;;
9248;SDS011;4660;41.768;26.198;2023-11-21T08:43:34;21.63;;;16.57;;
9248;SDS011;4660;41.768;26.198;2023-11-21T08:46:00;21.43;;;15.63;;
9248;SDS011;4660;41.768;26.198;2023-11-21T08:48:26;20.60;;;16.17;;
9248;SDS011;4660;41.768;26.198;2023-11-21T08:50:54;23.87;;;16.50;;
9248;SDS011;4660;41.768;26.198;2023-11-21T08:53:20;27.43;;;15.80;;
9248;SDS011;4660;41.768;26.198;2023-11-21T08:55:46;18.13;;;15.50;;
9248;SDS011;4660;41.768;26.198;2023-11-21T08:58:12;17.80;;;14.47;;
9248;SDS011;4660;41.768;26.198;2023-11-21T09:00:39;19.73;;;15.33;;
9248;SDS011;4660;41.768;26.198;2023-11-21T09:03:05;19.97;;;14.40;;
9248;SDS011;4660;41.768;26.198;2023-11-21T09:05:37;17.20;;;14.30;;
9248;SDS011;4660;41.768;26.198;2023-11-21T09:08:04;18.00;;;15.03;;
9248;SDS011;4660;41.768;26.198;2023-11-21T09:10:30;18.07;;;13.90;;
9248;SDS011;4660;41.768;26.198;2023-11-21T09:12:56;18.87;;;15.27;;
9248;SDS011;4660;41.768;26.198;2023-11-21T09:15:21;21.90;;;15.00;;
9248;SDS011;4660;41.768;26.198;2023-11-21T09:17:47;25.90;;;15.77;;
9248;SDS011;4660;41.768;26.198;2023-11-21T09:20:13;19.57;;;15.87;;
9248;SDS011;4660;41.768;26.198;2023-11-21T09:22:40;22.37;;;15.57;;
9248;SDS011;4660;41.768;26.198;2023-11-21T09:25:06;18.57;;;14.43;;
9248;SDS011;4660;41.768;26.198;2023-11-21T09:27:33;16.77;;;13.70;;
9248;SDS011;4660;41.768;26.198;2023-11-21T09:30:01;15.53;;;13.80;;
9248;SDS011;4660;41.768;26.198;2023-11-21T09:32:26;19.70;;;13.07;;
9248;SDS011;4660;41.768;26.198;2023-11-21T09:34:52;17.77;;;12.03;;
9248;SDS011;4660;41.768;26.198;2023-11-21T09:37:20;17.07;;;12.17;;
9248;SDS011;4660;41.768;26.198;2023-11-21T09:39:46;17.00;;;12.70;;
9248;SDS011;4660;41.768;26.198;2023-11-21T09:42:13;17.63;;;12.70;;
9248;SDS011;4660;41.768;26.198;2023-11-21T09:44:46;15.33;;;12.87;;
9248;SDS011;4660;41.768;26.198;2023-11-21T09:47:18;17.73;;;12.67;;
9248;SDS011;4660;41.768;26.198;2023-11-21T09:49:47;15.57;;;11.93;;
9248;SDS011;4660;41.768;26.198;2023-11-21T09:52:27;15.70;;;13.00;;
9248;SDS011;4660;41.768;26.198;2023-11-21T09:54:53;18.50;;;12.43;;
9248;SDS011;4660;41.768;26.198;2023-11-21T09:57:22;16.03;;;13.30;;
9248;SDS011;4660;41.768;26.198;2023-11-21T09:59:54;19.70;;;13.03;;
9248;SDS011;4660;41.768;26.198;2023-11-21T10:02:26;17.60;;;12.80;;
9248;SDS011;4660;41.768;26.198;2023-11-21T10:04:58;12.70;;;11.20;;
9248;SDS011;4660;41.768;26.198;2023-11-21T10:07:25;13.43;;;11.93;;
9248;SDS011;4660;41.768;26.198;2023-11-21T10:09:52;12.60;;;10.60;;
9248;SDS011;4660;41.768;26.198;2023-11-21T10:12:18;12.63;;;10.87;;
9248;SDS011;4660;41.768;26.198;2023-11-21T10:14:48;17.57;;;11.73;;
9248;SDS011;4660;41.768;26.198;2023-11-21T10:17:24;14.33;;;11.50;;
9248;SDS011;4660;41.768;26.198;2023-11-21T10:19:55;16.13;;;12.80;;
9248;SDS011;4660;41.768;26.198;2023-11-21T10:22:23;13.27;;;11.70;;
9248;SDS011;4660;41.768;26.198;2023-11-21T10:24:49;14.60;;;12.33;;
9248;SDS011;4660;41.768;26.198;2023-11-21T10:27:15;15.60;;;12.00;;
9248;SDS011;4660;41.768;26.198;2023-11-21T10:29:41;14.87;;;12.50;;
9248;SDS011;4660;41.768;26.198;2023-11-21T10:32:07;19.03;;;12.37;;
9248;SDS011;4660;41.768;26.198;2023-11-21T10:34:32;16.53;;;12.77;;
9248;SDS011;4660;41.768;26.198;2023-11-21T10:36:58;21.13;;;12.33;;
9248;SDS011;4660;41.768;26.198;2023-11-21T10:39:36;17.93;;;13.53;;
9248;SDS011;4660;41.768;26.198;2023-11-21T10:42:03;19.53;;;15.47;;
9248;SDS011;4660;41.768;26.198;2023-11-21T10:44:29;18.03;;;12.90;;
9248;SDS011;4660;41.768;26.198;2023-11-21T10:46:55;15.60;;;11.67;;
9248;SDS011;4660;41.768;26.198;2023-11-21T10:49:22;20.57;;;13.37;;
9248;SDS011;4660;41.768;26.198;2023-11-21T10:51:50;26.17;;;13.37;;
9248;SDS011;4660;41.768;26.198;2023-11-21T10:54:21;18.47;;;13.50;;
9248;SDS011;4660;41.768;26.198;2023-11-21T10:56:49;19.53;;;13.13;;
9248;SDS011;4660;41.768;26.198;2023-11-21T10:59:17;15.73;;;12.67;;
9248;SDS011;4660;41.768;26.198;2023-11-21T11:01:46;19.07;;;13.77;;
9248;SDS011;4660;41.768;26.198;2023-11-21T11:04:18;20.03;;;14.30;;
9248;SDS011;4660;41.768;26.198;2023-11-21T11:06:45;17.83;;;14.30;;
9248;SDS011;4660;41.768;26.198;2023-11-21T11:09:14;20.97;;;14.27;;
9248;SDS011;4660;41.768;26.198;2023-11-21T11:11:42;22.43;;;15.07;;
9248;SDS011;4660;41.768;26.198;2023-11-21T11:14:11;19.63;;;14.83;;
9248;SDS011;4660;41.768;26.198;2023-11-21T11:16:39;20.47;;;15.87;;
9248;SDS011;4660;41.768;26.198;2023-11-21T11:19:09;24.63;;;16.10;;
9248;SDS011;4660;41.768;26.198;2023-11-21T11:27:17;23.43;;;15.43;;
9248;SDS011;4660;41.768;26.198;2023-11-21T11:35:41;25.13;;;16.80;;
9248;SDS011;4660;41.768;26.198;2023-11-21T11:38:21;26.83;;;17.53;;
9248;SDS011;4660;41.768;26.198;2023-11-21T11:40:47;21.33;;;15.17;;
9248;SDS011;4660;41.768;26.198;2023-11-21T11:43:24;22.53;;;16.40;;
9248;SDS011;4660;41.768;26.198;2023-11-21T11:45:51;22.43;;;15.43;;
9248;SDS011;4660;41.768;26.198;2023-11-21T11:48:18;23.77;;;16.63;;
9248;SDS011;4660;41.768;26.198;2023-11-21T11:51:02;27.53;;;17.50;;
9248;SDS011;4660;41.768;26.198;2023-11-21T11:53:35;28.90;;;17.10;;
9248;SDS011;4660;41.768;26.198;2023-11-21T11:59:04;23.03;;;16.43;;
9248;SDS011;4660;41.768;26.198;2023-11-21T12:01:31;28.30;;;17.95;;
9248;SDS011;4660;41.768;26.198;2023-11-21T12:06:45;24.30;;;16.70;;
9248;SDS011;4660;41.768;26.198;2023-11-21T12:09:23;24.03;;;17.00;;
9248;SDS011;4660;41.768;26.198;2023-11-21T12:11:51;23.90;;;16.00;;
9248;SDS011;4660;41.768;26.198;2023-11-21T12:14:19;26.80;;;17.47;;
9248;SDS011;4660;41.768;26.198;2023-11-21T12:16:45;22.90;;;17.30;;
9248;SDS011;4660;41.768;26.198;2023-11-21T12:19:11;27.20;;;16.47;;
9248;SDS011;4660;41.768;26.198;2023-11-21T12:21:37;25.17;;;16.90;;
9248;SDS011;4660;41.768;26.198;2023-11-21T12:24:06;24.87;;;17.83;;
9248;SDS011;4660;41.768;26.198;2023-11-21T12:26:40;23.70;;;16.80;;
9248;SDS011;4660;41.768;26.198;2023-11-21T12:29:05;22.80;;;17.07;;
9248;SDS011;4660;41.768;26.198;2023-11-21T12:31:33;25.40;;;15.73;;
9248;SDS011;4660;41.768;26.198;2023-11-21T12:34:00;26.13;;;16.27;;
9248;SDS011;4660;41.768;26.198;2023-11-21T12:36:26;24.57;;;16.37;;
9248;SDS011;4660;41.768;26.198;2023-11-21T12:38:54;27.03;;;16.33;;
9248;SDS011;4660;41.768;26.198;2023-11-21T12:41:20;21.17;;;15.17;;
9248;SDS011;4660;41.768;26.198;2023-11-21T12:43:46;31.67;;;16.10;;
9248;SDS011;4660;41.768;26.198;2023-11-21T12:46:13;25.03;;;15.60;;
9248;SDS011;4660;41.768;26.198;2023-11-21T12:48:43;26.70;;;17.00;;
9248;SDS011;4660;41.768;26.198;2023-11-21T12:51:11;23.47;;;15.57;;
9248;SDS011;4660;41.768;26.198;2023-11-21T12:53:37;23.53;;;15.37;;
9248;SDS011;4660;41.768;26.198;2023-11-21T12:56:13;29.07;;;16.20;;
9248;SDS011;4660;41.768;26.198;2023-11-21T12:58:43;23.00;;;15.77;;
9248;SDS011;4660;41.768;26.198;2023-11-21T13:01:12;18.00;;;14.37;;
9248;SDS011;4660;41.768;26.198;2023-11-21T13:03:43;24.87;;;16.43;;
9248;SDS011;4660;41.768;26.198;2023-11-21T13:06:13;24.83;;;17.03;;
9248;SDS011;4660;41.768;26.198;2023-11-21T13:08:41;22.57;;;16.47;;
9248;SDS011;4660;41.768;26.198;2023-11-21T13:11:10;25.77;;;16.93;;
9248;SDS011;4660;41.768;26.198;2023-11-21T13:13:36;24.63;;;17.00;;
9248;SDS011;4660;41.768;26.198;2023-11-21T13:16:05;27.63;;;16.23;;
9248;SDS011;4660;41.768;26.198;2023-11-21T13:18:33;24.33;;;17.77;;
9248;SDS011;4660;41.768;26.198;2023-11-21T13:21:00;24.90;;;17.77;;
9248;SDS011;4660;41.768;26.198;2023-11-21T13:23:34;21.63;;;16.53;;
9248;SDS011;4660;41.768;26.198;2023-11-21T13:26:01;27.77;;;17.17;;
9248;SDS011;4660;41.768;26.198;2023-11-21T13:28:42;25.73;;;18.57;;
9248;SDS011;4660;41.768;26.198;2023-11-21T13:31:11;27.90;;;18.27;;
9248;SDS011;4660;41.768;26.198;2023-11-21T13:33:48;28.00;;;18.07;;
9248;SDS011;4660;41.768;26.198;2023-11-21T13:36:21;26.33;;;17.90;;
9248;SDS011;4660;41.768;26.198;2023-11-21T13:38:49;25.97;;;16.80;;
9248;SDS011;4660;41.768;26.198;2023-11-21T13:41:15;21.47;;;15.27;;
9248;SDS011;4660;41.768;26.198;2023-11-21T13:43:43;21.43;;;14.07;;
9248;SDS011;4660;41.768;26.198;2023-11-21T13:46:14;24.30;;;13.40;;
9248;SDS011;4660;41.768;26.198;2023-11-21T13:48:42;18.93;;;12.60;;
9248;SDS011;4660;41.768;26.198;2023-11-21T13:51:14;22.17;;;12.30;;
9248;SDS011;4660;41.768;26.198;2023-11-21T13:53:43;14.77;;;11.00;;
9248;SDS011;4660;41.768;26.198;2023-11-21T13:56:15;16.53;;;10.30;;
9248;SDS011;4660;41.768;26.198;2023-11-21T13:58:44;14.60;;;9.97;;
9248;SDS011;4660;41.768;26.198;2023-11-21T14:01:20;15.80;;;10.73;;
9248;SDS011;4660;41.768;26.198;2023-11-21T14:04:09;17.00;;;11.93;;
9248;SDS011;4660;41.768;26.198;2023-11-21T14:06:51;18.57;;;11.53;;
9248;SDS011;4660;41.768;26.198;2023-11-21T14:09:23;18.70;;;11.93;;
9248;SDS011;4660;41.768;26.198;2023-11-21T14:11:58;21.57;;;12.57;;
9248;SDS011;4660;41.768;26.198;2023-11-21T14:14:26;17.97;;;13.10;;
9248;SDS011;4660;41.768;26.198;2023-11-21T14:16:53;19.63;;;13.67;;
9248;SDS011;4660;41.768;26.198;2023-11-21T14:19:18;19.10;;;12.90;;
9248;SDS011;4660;41.768;26.198;2023-11-21T14:21:44;21.70;;;12.07;;
9248;SDS011;4660;41.768;26.198;2023-11-21T14:24:11;14.40;;;11.37;;
9248;SDS011;4660;41.768;26.198;2023-11-21T14:26:39;16.83;;;11.57;;
9248;SDS011;4660;41.768;26.198;2023-11-21T14:29:06;18.33;;;11.23;;
9248;SDS011;4660;41.768;26.198;2023-11-21T14:31:32;19.17;;;12.33;;
9248;SDS011;4660;41.768;26.198;2023-11-21T14:33:58;17.23;;;11.40;;
9248;SDS011;4660;41.768;26.198;2023-11-21T14:36:26;14.23;;;10.63;;
9248;SDS011;4660;41.768;26.198;2023-11-21T14:38:52;19.20;;;11.33;;
9248;SDS011;4660;41.768;26.198;2023-11-21T14:41:18;16.63;;;11.30;;
9248;SDS011;4660;41.768;26.198;2023-11-21T14:43:44;14.70;;;11.17;;
9248;SDS011;4660;41.768;26.198;2023-11-21T14:46:12;13.67;;;10.33;;
9248;SDS011;4660;41.768;26.198;2023-11-21T14:48:42;14.30;;;10.00;;
9248;SDS011;4660;41.768;26.198;2023-11-21T14:51:11;12.90;;;9.90;;
9248;SDS011;4660;41.768;26.198;2023-11-21T14:53:55;13.83;;;10.23;;
9248;SDS011;4660;41.768;26.198;2023-11-21T14:56:26;16.40;;;10.97;;